• Join FlightAware (Why Join?)
  • Login
  • US Flag 
Rudolph Flight #1: Arrived! 
02:42AM EST


 

Airport Tracker/Info


-or-


 

Live Flight TrackerFlight Track Log ✈ SWA902 ✈ 21-Apr-2013 ✈ KSTL - KOMA

Flight Track Log - Related Links

Times and Time Zones

All times are in EDT time to prevent confusion due to time zone crossing. See the SWA902 flight status page for this flight to view local times or setup timezone preferences in your user account.

Time Position Orientation Groundspeed Altitude Reporting Facility
EDT Latitude Longitude Course Direction KTS MPH feet Rate Location/Type
07:45PM 38.7197 -90.2597 126° Southeast 155 178 2,200  Level FAA TRACON SMA TRACON (SMA)
07:46PM 38.7075 -90.2389 127° Southeast 186 214 3,000 1,800 Climbing FAA TRACON SMA TRACON (SMA)
07:46PM 38.6931 -90.2256 144° Southeast 209 241 3,400 1,500 Climbing FAA TRACON SMA TRACON (SMA)
07:46PM 38.6722 -90.2239 176° South 241 277 4,000 2,520 Climbing FAA TRACON SMA TRACON (SMA)
07:47PM 38.6478 -90.2408 208° Southwest 268 308 5,100 3,120 Climbing FAA TRACON SMA TRACON (SMA)
07:47PM 38.6419 -90.2694 255° West 283 326 6,100 3,120 Climbing FAA TRACON SMA TRACON (SMA)
07:47PM 38.6511 -90.2975 293° West 285 328 7,200 3,420 Climbing FAA TRACON SMA TRACON (SMA)
07:48PM 38.6683 -90.3289 305° West 281 323 8,400 3,600 Climbing FAA TRACON SMA TRACON (SMA)
07:48PM 38.6822 -90.3550 304° West 286 329 9,600 3,300 Climbing FAA TRACON SMA TRACON (SMA)
07:48PM 38.6969 -90.3839 303° West 308 354 10,600 1,920 Climbing FAA TRACON SMA TRACON (SMA)
07:49PM 38.7161 -90.4136 310° West 342 394 10,900 1,800 Climbing FAA TRACON SMA TRACON (SMA)
07:49PM 38.7417 -90.4497 312° West 355 409 11,800 2,520 Climbing FAA TRACON SMA TRACON (SMA)
07:49PM 38.7606 -90.4783 310° West 350 403 12,600 2,520 Climbing FAA TRACON SMA TRACON (SMA)
07:50PM 38.7803 -90.5086 310° West 355 409 13,500 4,500 Climbing FAA TRACON SMA TRACON (SMA)
07:50PM 38.8042 -90.5461 309° West 356 410 15,600 4,920 Climbing FAA TRACON SMA TRACON (SMA)
07:50PM 38.8219 -90.5747 309° West 341 392 16,800 2,400 Climbing FAA TRACON SMA TRACON (SMA)
07:51PM 38.8408 -90.6036 310° West 337 388 17,200 1,620 Climbing FAA TRACON SMA TRACON (SMA)
07:51PM 38.8653 -90.6419 309° West 358 412 17,900 2,400 Climbing FAA TRACON SMA TRACON (SMA)
07:51PM 38.8839 -90.6739 307° West 366 421 18,800 2,520 Climbing FAA TRACON SMA TRACON (SMA)
07:52PM 38.9036 -90.7053 309° West 368 423 19,600 2,400 Climbing FAA TRACON SMA TRACON (SMA)
07:52PM 38.9244 -90.7372 310° West 374 430 20,400 2,820 Climbing FAA TRACON SMA TRACON (SMA)
07:52PM 38.9500 -90.7775 309° West 379 436 21,500 2,700 Climbing FAA TRACON SMA TRACON (SMA)
07:53PM 38.9697 -90.8111 307° West 382 440 22,200 2,220 Climbing FAA TRACON SMA TRACON (SMA)
07:53PM 38.9906 -90.8442 309° West 386 444 23,000 2,520 Climbing FAA TRACON SMA TRACON (SMA)
07:53PM 39.0172 -90.8856 310° West 389 448 23,900 2,400 Climbing FAA TRACON SMA TRACON (SMA)
07:54PM 39.0383 -90.9197 309° West 394 453 24,600 2,100 Climbing FAA TRACON SMA TRACON (SMA)
07:54PM 39.0597 -90.9536 309° West 397 457 25,300 2,100 Climbing FAA TRACON SMA TRACON (SMA)
07:54PM 39.0858 -90.9981 307° West 404 465 26,000 1,920 Climbing FAA TRACON SMA TRACON (SMA)
07:55PM 39.1056 -91.0353 304° West 408 470 26,600 1,920 Climbing FAA TRACON SMA TRACON (SMA)
07:55PM 39.1239 -91.0736 302° West 409 471 27,300 2,100 Climbing FAA TRACON SMA TRACON (SMA)
07:55PM 39.1467 -91.1225 301° West 414 476 28,000 1,500 Climbing FAA TRACON SMA TRACON (SMA)
07:56PM 39.1550 -91.1953 278° West 403 464 28,300 2,040 Climbing Kansas City Center
07:57PM 39.2069 -91.3289 297° West 412 474 30,700 1,740 Climbing Kansas City Center
07:58PM 39.2586 -91.4619 297° West 415 478 32,000 900 Climbing Kansas City Center
07:59PM 39.3194 -91.6186 297° West 411 473 32,600 960 Climbing Kansas City Center
08:00PM 39.3672 -91.7400 297° West 406 467 34,000 660 Climbing Kansas City Center
08:01PM 39.4183 -91.8667 298° West 402 463 34,000  Level Kansas City Center
08:02PM 39.4675 -91.9953 296° West 401 461 34,000  Level Kansas City Center
08:03PM 39.5256 -92.1497 296° West 400 460 34,000  Level Kansas City Center
08:04PM 39.5758 -92.2786 297° West 401 461 34,000  Level Kansas City Center
08:05PM 39.6244 -92.4061 296° West 399 459 34,000  Level Kansas City Center
08:06PM 39.6844 -92.5261 303° West 402 463 34,000  Level Kansas City Center
08:07PM 39.7544 -92.6353 310° West 399 459 34,000  Level Kansas City Center
08:08PM 39.8269 -92.7486 310° West 401 461 34,000  Level Kansas City Center
08:09PM 39.8967 -92.8572 310° West 400 460 34,000  Level Kansas City Center
08:10PM 39.9817 -92.9894 310° West 397 457 34,000  Level Kansas City Center
08:11PM 40.0528 -93.1008 310° West 398 458 34,000  Level Kansas City Center
08:12PM 40.1203 -93.2100 309° West 393 452 34,000  Level Kansas City Center
08:13PM 40.1894 -93.3183 310° West 389 448 34,000  Level Kansas City Center
08:14PM 40.2572 -93.4264 309° West 388 447 34,000  Level Kansas City Center
08:15PM 40.3267 -93.5372 309° West 391 450 34,000  Level Kansas City Center
08:16PM 40.4111 -93.6711 310° West 397 457 34,000  Level Kansas City Center
08:16PM 40.4256 -93.6942 309° West 396 456 34,000  Level Minneapolis Center
08:17PM 40.4956 -93.8083 309° West 399 459 34,000  Level Minneapolis Center
08:18PM 40.5511 -93.9328 300° West 399 459 34,000  Level Minneapolis Center
08:19PM 40.5992 -94.0622 296° West 398 458 34,000 -1,500 Level Minneapolis Center
08:20PM 40.6569 -94.2111 297° West 388 447 31,000 -2,460 Descending Minneapolis Center
08:22PM 40.7061 -94.3375 297° West 390 449 29,000 -1,740 Descending Minneapolis Center
08:23PM 40.7517 -94.4506 298° West 362 417 27,500 -2,460 Descending Minneapolis Center
08:24PM 40.7978 -94.5719 297° West 356 410 24,100 -3,000 Descending Minneapolis Center
08:25PM 40.8461 -94.6956 297° West 374 430 21,400 -2,460 Descending Minneapolis Center
08:26PM 40.8939 -94.8150 298° West 371 427 19,100 -2,340 Descending Minneapolis Center
08:26PM 40.9453 -94.9106 305° West 355 409 17,200 -2,400 Descending Minneapolis Center
08:27PM 40.9639 -94.9633 295° West 348 400 16,200 -1,020 Descending Minneapolis Center
08:28PM 40.9806 -95.0394 286° West 340 391 16,000 -960 Descending Minneapolis Center
08:29PM 41.0153 -95.1311 297° West 290 334 14,500 -1,440 Descending Minneapolis Center
08:30PM 41.0511 -95.2264 297° West 286 329 13,100 -1,620 Descending Minneapolis Center
08:31PM 41.0931 -95.3342 297° West 279 321 11,300 -1,680 Descending Minneapolis Center
08:32PM 41.1244 -95.4242 295° West 274 315 9,800 -1,440 Descending Minneapolis Center
08:33PM 41.1314 -95.5178 276° West 260 299 8,500 -1,440 Descending Minneapolis Center
08:34PM 41.1153 -95.6106 257° West 264 304 6,900 -1,680 Descending Minneapolis Center
08:35PM 41.1081 -95.6950 264° West 253 291 5,000 -1,860 Descending Minneapolis Center
08:36PM 41.1672 -95.7628 319° Northwest 265 305 3,200 -1,080 Descending Minneapolis Center
08:37PM 41.2142 -95.8097 323° Northwest 197 227 2,900 -600 Descending Minneapolis Center
08:38PM 41.2544 -95.8494 323° Northwest 162 186 2,000 -780 Descending Minneapolis Center
08:39PM 41.2886 -95.8769 329° Northwest 178 205 1,200 -660 Descending Minneapolis Center
08:41PM 41.3000 -95.8833 294° West  Level FlightAware Approximate